Time;durP1;ratioP1;P1;durP2;ratioP2;P2;SDS_P1;SDS_P2;PMS_P1;PMS_P2;Temp;Humidity;BMP_temperature;BMP_pressure;BME280_temperature;BME280_humidity;BME280_pressure;Samples;Min_cycle;Max_cycle;Signal;HPM_P1;HPM_P2
2021/01/17 00:00:04;;;;;;;54.05;22.38;;;1.40;99.90;;;;;;4863385;29;20029;-79
2021/01/17 00:02:29;;;;;;;54.80;21.63;;;1.40;99.90;;;;;;4864192;29;20041;-79
2021/01/17 00:04:55;;;;;;;57.10;22.15;;;1.40;99.90;;;;;;4862991;29;20033;-79
2021/01/17 00:07:22;;;;;;;54.25;20.85;;;1.40;99.90;;;;;;4847046;29;20511;-79
2021/01/17 00:09:48;;;;;;;60.45;21.63;;;1.40;99.90;;;;;;4863752;29;20033;-79
2021/01/17 00:12:13;;;;;;;53.40;20.95;;;1.40;99.90;;;;;;4852353;29;20037;-79
2021/01/17 00:14:40;;;;;;;55.05;21.90;;;1.50;99.90;;;;;;4862259;29;20211;-79
2021/01/17 00:17:06;;;;;;;63.03;23.00;;;1.50;99.90;;;;;;4864963;29;20094;-79
2021/01/17 00:19:31;;;;;;;56.38;21.45;;;1.50;99.90;;;;;;4864001;29;20072;-78
2021/01/17 00:21:57;;;;;;;57.67;22.85;;;1.50;99.90;;;;;;4862785;29;20032;-79
2021/01/17 00:24:23;;;;;;;55.78;21.50;;;1.60;99.90;;;;;;4864950;29;20041;-80
2021/01/17 00:26:49;;;;;;;57.67;21.33;;;1.50;99.90;;;;;;4862098;29;20048;-78
2021/01/17 00:29:15;;;;;;;51.42;21.17;;;1.60;99.90;;;;;;4864049;29;20065;-78
2021/01/17 00:31:40;;;;;;;56.75;21.25;;;1.60;99.90;;;;;;4865349;29;20044;-78
2021/01/17 00:34:06;;;;;;;64.63;23.83;;;1.60;99.90;;;;;;4863842;29;20532;-79
2021/01/17 00:36:41;;;;;;;51.40;20.80;;;1.60;99.90;;;;;;4864223;29;20462;-80
2021/01/17 00:39:07;;;;;;;55.75;21.33;;;1.60;99.90;;;;;;4849063;29;20132;-80
2021/01/17 00:41:33;;;;;;;57.30;21.52;;;1.60;99.90;;;;;;4847957;29;20030;-79
2021/01/17 00:43:59;;;;;;;58.28;20.65;;;1.60;99.90;;;;;;4864128;29;20037;-79
2021/01/17 00:46:25;;;;;;;57.88;20.80;;;1.60;99.90;;;;;;4865793;29;20139;-78
2021/01/17 00:48:51;;;;;;;57.72;21.23;;;1.60;99.90;;;;;;4863254;29;20367;-79
2021/01/17 00:51:16;;;;;;;54.35;21.23;;;1.60;99.90;;;;;;4862343;29;20057;-79
2021/01/17 00:53:42;;;;;;;53.17;21.85;;;1.60;99.90;;;;;;4846223;29;20022;-79
2021/01/17 00:56:08;;;;;;;54.45;21.25;;;1.50;99.90;;;;;;4847707;29;20021;-79
2021/01/17 00:58:34;;;;;;;52.83;21.00;;;1.60;99.90;;;;;;4846670;29;20041;-79
2021/01/17 01:00:59;;;;;;;52.67;20.73;;;1.50;99.90;;;;;;4864596;29;20029;-80
2021/01/17 01:03:25;;;;;;;48.30;19.27;;;1.50;99.90;;;;;;4865709;29;20032;-80
2021/01/17 01:05:51;;;;;;;48.83;19.33;;;1.50;99.90;;;;;;4865657;29;20034;-80
2021/01/17 01:08:17;;;;;;;49.60;20.67;;;1.60;99.90;;;;;;4850280;29;20022;-79
2021/01/17 01:10:42;;;;;;;57.88;21.15;;;1.60;99.90;;;;;;4850552;29;20026;-80
2021/01/17 01:13:08;;;;;;;60.38;21.88;;;1.60;99.90;;;;;;4850882;29;20127;-80
2021/01/17 01:15:33;;;;;;;55.13;21.48;;;1.60;99.90;;;;;;4865958;29;20065;-80
2021/01/17 01:18:00;;;;;;;60.25;21.75;;;1.70;99.90;;;;;;4851430;29;20044;-80
2021/01/17 01:20:27;;;;;;;51.83;19.00;;;1.60;99.90;;;;;;4866587;29;20375;-81
2021/01/17 01:22:53;;;;;;;51.75;20.60;;;1.70;99.90;;;;;;4852375;29;20034;-81
2021/01/17 01:25:19;;;;;;;51.95;21.63;;;1.70;99.90;;;;;;4869306;29;20059;-80
2021/01/17 01:27:48;;;;;;;57.95;21.65;;;1.70;99.90;;;;;;4852620;29;20029;-80
2021/01/17 01:30:14;;;;;;;57.67;21.42;;;1.70;99.90;;;;;;4867744;29;20124;-79
2021/01/17 01:32:40;;;;;;;55.50;20.75;;;1.80;99.90;;;;;;4850340;29;20029;-80
2021/01/17 01:35:06;;;;;;;60.20;22.48;;;1.80;99.90;;;;;;4867780;29;20041;-79
2021/01/17 01:37:36;;;;;;;61.58;22.35;;;1.70;99.90;;;;;;4866495;29;20156;-80
2021/01/17 01:40:04;;;;;;;54.97;21.45;;;1.70;99.90;;;;;;4866325;29;20032;-80
2021/01/17 01:42:30;;;;;;;63.20;21.60;;;1.70;99.90;;;;;;4866649;29;20529;-80
2021/01/17 01:44:55;;;;;;;70.80;22.67;;;1.70;99.90;;;;;;4868719;29;20041;-80
2021/01/17 01:47:27;;;;;;;65.30;22.27;;;1.70;99.90;;;;;;4868106;29;20026;-80
2021/01/17 01:49:55;;;;;;;56.42;20.13;;;1.70;99.90;;;;;;4865545;29;20086;-79
2021/01/17 01:52:22;;;;;;;58.05;20.75;;;1.80;99.90;;;;;;4866156;29;20041;-80
2021/01/17 01:54:48;;;;;;;63.63;21.85;;;1.70;99.90;;;;;;4870117;29;20033;-81
2021/01/17 01:57:14;;;;;;;62.45;21.60;;;1.70;99.90;;;;;;4873346;29;20030;-81
2021/01/17 01:59:40;;;;;;;63.50;22.67;;;1.70;99.90;;;;;;4872343;29;20025;-80
2021/01/17 02:02:09;;;;;;;55.40;21.58;;;1.70;99.90;;;;;;4884092;29;20025;-81
2021/01/17 02:04:39;;;;;;;61.03;22.17;;;1.70;99.90;;;;;;4883588;29;20030;-81
2021/01/17 02:07:13;;;;;;;64.20;21.90;;;1.80;99.90;;;;;;4863695;29;20102;-80
2021/01/17 02:09:40;;;;;;;64.00;22.25;;;1.80;99.90;;;;;;4876123;29;20050;-80
2021/01/17 02:12:27;;;;;;;61.92;22.10;;;1.80;99.90;;;;;;4872207;29;20120;-80
2021/01/17 02:15:24;;;;;;;56.35;21.15;;;1.80;99.90;;;;;;4870852;29;20520;-80
2021/01/17 02:17:50;;;;;;;59.85;21.17;;;1.80;99.90;;;;;;4869275;29;20029;-80
2021/01/17 02:20:24;;;;;;;53.22;20.52;;;1.80;99.90;;;;;;4868826;29;20029;-81
2021/01/17 02:23:01;;;;;;;48.90;20.02;;;1.80;99.90;;;;;;4869710;29;20038;-80
2021/01/17 02:25:34;;;;;;;56.15;20.38;;;1.80;99.90;;;;;;4877655;29;20057;-80
2021/01/17 02:28:03;;;;;;;52.97;20.70;;;1.90;99.90;;;;;;4868794;29;20029;-80
2021/01/17 02:30:31;;;;;;;58.40;20.45;;;1.80;99.90;;;;;;4857180;29;20120;-80
2021/01/17 02:33:03;;;;;;;57.28;20.88;;;1.90;99.90;;;;;;4869467;29;20045;-80
2021/01/17 02:35:32;;;;;;;49.10;20.17;;;1.90;99.90;;;;;;4868305;29;20033;-80
2021/01/17 02:38:03;;;;;;;60.25;21.85;;;1.90;99.90;;;;;;4853208;29;20479;-79
2021/01/17 02:40:48;;;;;;;55.00;21.17;;;1.80;99.90;;;;;;4868947;29;20082;-80
2021/01/17 02:43:14;;;;;;;61.17;21.30;;;1.90;99.90;;;;;;4869085;29;20033;-80
2021/01/17 02:45:40;;;;;;;59.55;20.88;;;1.90;99.90;;;;;;4854489;29;20051;-80
2021/01/17 02:48:07;;;;;;;60.58;21.83;;;2.00;99.90;;;;;;4853144;29;20029;-80
2021/01/17 02:50:32;;;;;;;57.80;20.52;;;2.00;99.90;;;;;;4868699;29;20052;-80
2021/01/17 02:53:04;;;;;;;55.38;20.42;;;2.00;99.90;;;;;;4854834;29;20132;-80
2021/01/17 02:55:34;;;;;;;50.08;21.55;;;2.00;99.90;;;;;;4872693;29;20033;-79
2021/01/17 02:58:02;;;;;;;54.42;20.00;;;2.00;99.90;;;;;;4856554;29;20032;-80
2021/01/17 03:00:32;;;;;;;53.35;20.23;;;2.00;99.90;;;;;;4856160;29;20033;-80
2021/01/17 03:02:58;;;;;;;55.60;20.98;;;2.00;99.90;;;;;;4870371;29;20370;-79
2021/01/17 03:05:25;;;;;;;52.60;20.23;;;2.00;99.90;;;;;;4871818;29;20040;-80
2021/01/17 03:07:53;;;;;;;45.03;19.05;;;2.00;99.90;;;;;;4871352;29;20034;-79
2021/01/17 03:10:20;;;;;;;47.72;18.63;;;2.00;99.90;;;;;;4872095;29;20036;-80
2021/01/17 03:12:47;;;;;;;51.75;19.50;;;2.00;99.90;;;;;;4871584;29;20093;-79
2021/01/17 03:15:17;;;;;;;51.03;20.65;;;2.10;99.90;;;;;;4872176;29;20030;-80
2021/01/17 03:17:43;;;;;;;54.50;19.92;;;2.20;99.90;;;;;;4860813;29;20621;-81
2021/01/17 03:20:09;;;;;;;48.28;18.52;;;2.10;99.90;;;;;;4855619;29;20082;-80
2021/01/17 03:22:35;;;;;;;52.85;19.65;;;2.10;99.90;;;;;;4855278;29;20029;-78
2021/01/17 03:25:01;;;;;;;54.75;19.75;;;2.10;99.90;;;;;;4871184;29;20455;-80
2021/01/17 03:27:27;;;;;;;56.10;20.45;;;2.10;99.90;;;;;;4857733;29;20033;-80
2021/01/17 03:29:52;;;;;;;50.03;20.00;;;2.10;99.90;;;;;;4873772;29;20025;-80
2021/01/17 03:32:18;;;;;;;51.90;19.65;;;2.10;99.90;;;;;;4873770;29;20136;-80
2021/01/17 03:34:48;;;;;;;56.78;20.63;;;2.10;99.90;;;;;;4875723;29;20038;-80
2021/01/17 03:37:18;;;;;;;54.47;18.95;;;2.10;99.90;;;;;;4859447;29;20029;-81
2021/01/17 03:39:44;;;;;;;53.78;19.63;;;2.10;99.90;;;;;;4876222;29;20056;-80
2021/01/17 03:42:10;;;;;;;52.38;20.45;;;2.10;99.90;;;;;;4857900;29;20062;-81
2021/01/17 03:44:37;;;;;;;49.63;19.05;;;2.20;99.90;;;;;;4875286;29;20058;-80
2021/01/17 03:47:03;;;;;;;51.83;18.25;;;2.20;99.90;;;;;;4874740;29;20040;-81
2021/01/17 03:49:29;;;;;;;47.75;17.98;;;2.20;99.90;;;;;;4859849;29;20045;-81
2021/01/17 03:51:55;;;;;;;51.58;18.08;;;2.20;99.90;;;;;;4867352;29;20049;-82
2021/01/17 03:54:20;;;;;;;49.50;17.90;;;2.20;99.90;;;;;;4857265;29;20034;-81
2021/01/17 03:56:46;;;;;;;49.30;17.95;;;2.20;99.90;;;;;;4854619;29;20042;-80
2021/01/17 03:59:13;;;;;;;56.35;20.67;;;2.30;99.90;;;;;;4856213;29;20032;-81
2021/01/17 04:01:39;;;;;;;55.33;19.77;;;2.30;99.90;;;;;;4858109;29;20034;-81
2021/01/17 04:04:04;;;;;;;52.63;19.27;;;2.30;99.90;;;;;;4858817;29;20070;-81
2021/01/17 04:06:30;;;;;;;48.25;18.55;;;2.30;99.90;;;;;;4858903;29;20034;-80
2021/01/17 04:08:56;;;;;;;59.13;19.02;;;2.30;99.90;;;;;;4858585;29;20037;-79
2021/01/17 04:11:21;;;;;;;48.45;19.30;;;2.30;99.90;;;;;;4857559;29;20030;-79
2021/01/17 04:13:47;;;;;;;59.17;21.00;;;2.30;99.90;;;;;;4858390;29;20018;-80
2021/01/17 04:16:13;;;;;;;51.20;19.27;;;2.40;99.90;;;;;;4858601;29;20036;-82
2021/01/17 04:18:38;;;;;;;56.25;20.17;;;2.40;99.90;;;;;;4853038;29;20034;-78
2021/01/17 04:21:04;;;;;;;47.22;18.95;;;2.40;99.90;;;;;;4851109;29;20037;-79
2021/01/17 04:23:31;;;;;;;51.30;18.52;;;2.40;99.90;;;;;;4852144;29;20030;-79
2021/01/17 04:25:57;;;;;;;47.67;17.95;;;2.40;99.90;;;;;;4853698;29;20122;-76
2021/01/17 04:28:22;;;;;;;51.55;18.73;;;2.40;99.90;;;;;;4866862;29;20057;-76
2021/01/17 04:30:48;;;;;;;48.85;19.27;;;2.40;99.90;;;;;;4849371;29;20102;-75
2021/01/17 04:33:18;;;;;;;48.83;19.67;;;2.30;99.90;;;;;;4853812;29;20037;-76
2021/01/17 04:35:45;;;;;;;52.53;19.45;;;2.30;99.90;;;;;;4864749;29;20061;-77
2021/01/17 04:38:10;;;;;;;48.03;17.73;;;2.40;99.90;;;;;;4848559;29;20376;-77
2021/01/17 04:40:36;;;;;;;51.90;18.45;;;2.40;99.90;;;;;;4850945;29;20041;-77
2021/01/17 04:43:30;;;;;;;48.25;18.63;;;2.30;99.90;;;;;;4847837;29;20036;-77
2021/01/17 04:46:00;;;;;;;52.25;19.85;;;2.40;99.90;;;;;;4847444;29;20041;-77
2021/01/17 04:48:27;;;;;;;42.00;17.88;;;2.40;99.90;;;;;;4860903;29;20037;-77
2021/01/17 04:51:02;;;;;;;47.30;17.17;;;2.40;99.90;;;;;;4843872;29;20519;-77
2021/01/17 04:53:34;;;;;;;45.35;18.00;;;2.40;99.90;;;;;;4826533;29;20044;-77
2021/01/17 04:56:29;;;;;;;57.25;19.80;;;2.50;99.90;;;;;;4830420;29;20030;-77
2021/01/17 04:59:08;;;;;;;42.88;17.02;;;2.50;99.90;;;;;;4824367;29;20070;-76
2021/01/17 05:01:46;;;;;;;40.30;17.60;;;2.50;99.90;;;;;;4842896;29;20042;-76
2021/01/17 05:04:50;;;;;;;44.85;18.13;;;2.60;99.90;;;;;;4829362;29;20045;-76
2021/01/17 05:07:23;;;;;;;37.88;16.45;;;2.70;99.90;;;;;;4844023;29;20050;-76
2021/01/17 05:10:03;;;;;;;43.28;17.13;;;2.70;99.90;;;;;;4843674;29;20033;-77
2021/01/17 05:12:52;;;;;;;41.50;17.33;;;2.70;99.90;;;;;;4829735;29;20078;-76
2021/01/17 05:15:21;;;;;;;38.75;16.63;;;2.70;99.90;;;;;;4830235;29;20047;-77
2021/01/17 05:17:47;;;;;;;40.75;16.33;;;2.80;99.90;;;;;;4830768;29;20027;-77
2021/01/17 05:20:13;;;;;;;45.35;18.10;;;2.80;99.90;;;;;;4845152;29;20027;-76
2021/01/17 05:22:40;;;;;;;51.83;18.75;;;2.80;99.90;;;;;;4846113;29;20098;-77
2021/01/17 05:25:09;;;;;;;48.13;18.15;;;2.80;99.90;;;;;;4846277;29;20037;-77
2021/01/17 05:27:36;;;;;;;47.03;17.92;;;2.80;99.90;;;;;;4845260;29;20395;-77
2021/01/17 05:30:05;;;;;;;53.15;18.25;;;2.80;99.90;;;;;;4844454;29;20030;-76
2021/01/17 05:32:32;;;;;;;46.80;19.40;;;2.80;99.90;;;;;;4844357;29;20044;-76
2021/01/17 05:34:59;;;;;;;40.17;18.00;;;2.90;99.90;;;;;;4830628;29;20031;-77
2021/01/17 05:37:25;;;;;;;44.70;17.88;;;2.90;99.90;;;;;;4829526;29;20026;-77
2021/01/17 05:40:04;;;;;;;49.42;18.15;;;2.90;99.90;;;;;;4844514;29;20056;-77
2021/01/17 05:42:32;;;;;;;45.25;18.15;;;3.00;99.90;;;;;;4844393;29;20129;-77
2021/01/17 05:45:08;;;;;;;;;;;2.90;99.90;;;;;;4831547;29;20032;-77
2021/01/17 05:47:34;;;;;;;42.17;16.73;;;2.90;99.90;;;;;;4824946;29;19940;-77
2021/01/17 05:50:08;;;;;;;49.67;16.70;;;2.90;99.90;;;;;;4829640;29;20026;-77
2021/01/17 05:52:35;;;;;;;54.30;20.10;;;3.00;99.90;;;;;;4861900;29;20049;-78
2021/01/17 05:55:01;;;;;;;53.53;20.45;;;3.00;99.90;;;;;;4868317;29;20040;-76
2021/01/17 05:57:27;;;;;;;52.95;20.25;;;3.00;99.90;;;;;;4851680;29;20053;-77
2021/01/17 05:59:55;;;;;;;55.15;19.27;;;3.10;99.90;;;;;;4851053;29;20042;-78
2021/01/17 06:02:23;;;;;;;56.25;20.88;;;3.10;99.90;;;;;;4863736;29;20129;-77
2021/01/17 06:04:53;;;;;;;;;;;3.20;99.90;;;;;;4850399;29;20475;-78
2021/01/17 06:07:22;;;;;;;51.88;17.45;;;3.20;99.90;;;;;;4866109;29;20383;-78
2021/01/17 06:09:55;;;;;;;48.33;19.55;;;3.20;99.90;;;;;;4865607;29;20465;-77
2021/01/17 06:12:35;;;;;;;44.75;17.63;;;3.20;99.90;;;;;;4865966;29;20037;-78
2021/01/17 06:15:12;;;;;;;53.42;19.65;;;3.20;99.90;;;;;;4850492;29;20022;-78
2021/01/17 06:17:44;;;;;;;44.95;18.67;;;3.20;99.90;;;;;;4866616;29;20044;-78
2021/01/17 06:20:17;;;;;;;41.63;19.27;;;3.30;99.90;;;;;;4866459;29;20045;-78
2021/01/17 06:22:55;;;;;;;47.58;17.77;;;3.30;99.90;;;;;;4868903;29;20038;-78
2021/01/17 06:25:26;;;;;;;46.42;17.70;;;3.30;99.90;;;;;;4868538;29;20033;-78
2021/01/17 06:28:06;;;;;;;49.92;18.02;;;3.40;99.90;;;;;;4869449;29;20038;-78
2021/01/17 06:30:32;;;;;;;50.78;20.20;;;3.40;99.90;;;;;;4869641;29;20053;-77
2021/01/17 06:32:58;;;;;;;44.75;18.52;;;3.40;99.90;;;;;;4868569;29;20034;-78
2021/01/17 06:35:38;;;;;;;48.22;17.95;;;3.50;99.90;;;;;;4870826;29;20029;-78
2021/01/17 06:38:20;;;;;;;49.15;19.05;;;3.50;99.90;;;;;;4868450;29;20068;-77
2021/01/17 06:40:48;;;;;;;47.30;17.45;;;3.50;99.90;;;;;;4870587;29;20053;-79
2021/01/17 06:43:14;;;;;;;46.78;16.27;;;3.50;99.90;;;;;;4856673;29;20037;-78
2021/01/17 06:45:42;;;;;;;50.17;17.58;;;3.50;99.90;;;;;;4871161;29;20467;-79
2021/01/17 06:48:08;;;;;;;44.40;19.10;;;3.60;99.90;;;;;;4856764;29;20439;-80
2021/01/17 06:50:34;;;;;;;42.72;17.98;;;3.60;99.90;;;;;;4856867;29;20037;-78
2021/01/17 06:53:00;;;;;;;46.47;16.95;;;3.70;99.90;;;;;;4873688;29;20033;-79
2021/01/17 06:55:26;;;;;;;47.38;17.38;;;3.70;99.90;;;;;;4872009;29;20048;-78
2021/01/17 06:57:53;;;;;;;52.47;17.75;;;3.70;99.90;;;;;;4872849;29;20030;-78
2021/01/17 07:00:19;;;;;;;43.35;15.57;;;3.80;99.90;;;;;;4873185;29;20072;-79
2021/01/17 07:02:51;;;;;;;42.70;15.98;;;3.80;99.90;;;;;;4870924;29;20040;-79
2021/01/17 07:05:42;;;;;;;39.90;16.33;;;3.80;99.90;;;;;;4855388;29;20124;-78
2021/01/17 07:08:33;;;;;;;47.65;16.65;;;3.80;99.90;;;;;;4871855;29;20030;-79
2021/01/17 07:11:13;;;;;;;46.00;17.73;;;3.80;99.90;;;;;;4853369;29;20041;-79
2021/01/17 07:13:42;;;;;;;35.22;14.43;;;3.90;99.90;;;;;;4868478;29;20037;-78
2021/01/17 07:16:21;;;;;;;35.70;14.68;;;3.90;99.90;;;;;;4867546;29;20039;-78
2021/01/17 07:18:57;;;;;;;37.90;13.60;;;3.90;99.90;;;;;;4861985;29;20077;-78
2021/01/17 07:21:23;;;;;;;39.90;14.60;;;3.90;99.90;;;;;;4856892;29;20479;-77
2021/01/17 07:23:55;;;;;;;38.22;14.48;;;4.00;99.90;;;;;;4866929;29;20034;-79
2021/01/17 07:26:32;;;;;;;39.45;13.45;;;4.00;99.90;;;;;;4864085;29;20029;-79
2021/01/17 07:29:04;;;;;;;35.25;13.77;;;4.00;99.90;;;;;;4866302;29;20052;-79
2021/01/17 07:31:36;;;;;;;54.47;15.07;;;4.00;99.90;;;;;;4846470;29;20030;-78
2021/01/17 07:34:13;;;;;;;39.08;13.13;;;4.10;99.90;;;;;;4849539;29;20429;-78
2021/01/17 07:36:47;;;;;;;39.40;11.93;;;4.10;99.90;;;;;;4860819;29;20554;-78
2021/01/17 07:39:17;;;;;;;38.53;11.48;;;4.10;99.90;;;;;;4852199;29;20033;-79
2021/01/17 07:41:48;;;;;;;39.00;12.60;;;4.10;99.90;;;;;;4849746;29;20125;-78
2021/01/17 07:44:17;;;;;;;35.47;10.48;;;4.20;99.90;;;;;;4866060;29;20062;-79
2021/01/17 07:46:43;;;;;;;36.00;11.15;;;4.20;99.90;;;;;;4861775;29;20050;-78
2021/01/17 07:49:11;;;;;;;33.38;11.77;;;4.30;99.90;;;;;;4851084;29;20034;-79
2021/01/17 07:51:36;;;;;;;38.45;11.95;;;4.30;99.90;;;;;;4865253;29;20050;-79
2021/01/17 07:54:16;;;;;;;28.38;9.30;;;4.20;99.90;;;;;;4849961;29;20037;-78
2021/01/17 07:56:43;;;;;;;40.75;10.48;;;4.30;99.90;;;;;;4864824;29;20022;-79
2021/01/17 07:59:10;;;;;;;32.03;10.38;;;4.20;99.90;;;;;;4866637;29;20044;-79
2021/01/17 08:01:36;;;;;;;28.65;9.95;;;4.20;99.90;;;;;;4867432;29;20034;-79
2021/01/17 08:04:01;;;;;;;35.40;10.45;;;4.20;99.90;;;;;;4867284;29;20037;-78
2021/01/17 08:06:36;;;;;;;25.77;9.23;;;4.20;99.90;;;;;;4867614;29;20033;-78
2021/01/17 08:09:02;;;;;;;39.42;11.57;;;4.30;99.90;;;;;;4867417;29;20041;-78
2021/01/17 08:11:43;;;;;;;37.75;10.18;;;4.30;99.90;;;;;;4866652;29;20044;-78
2021/01/17 08:14:26;;;;;;;36.75;9.45;;;4.30;99.90;;;;;;4850506;29;20048;-77
2021/01/17 08:17:09;;;;;;;36.83;10.13;;;4.30;99.90;;;;;;4850458;29;20428;-77
2021/01/17 08:19:53;;;;;;;32.75;9.90;;;4.40;99.90;;;;;;4863605;29;20033;-77
2021/01/17 08:22:19;;;;;;;34.22;10.35;;;4.40;99.90;;;;;;4860466;29;20033;-78
2021/01/17 08:24:52;;;;;;;34.50;8.63;;;4.50;99.90;;;;;;4864625;29;20050;-77
2021/01/17 08:27:36;;;;;;;32.20;8.85;;;4.50;99.90;;;;;;4855065;29;20033;-78
2021/01/17 08:30:07;;;;;;;29.77;8.02;;;4.60;99.90;;;;;;4863122;29;20117;-78
2021/01/17 08:32:41;;;;;;;29.13;7.40;;;4.60;99.90;;;;;;4863271;29;20399;-79
2021/01/17 08:35:18;;;;;;;26.60;6.80;;;4.70;99.90;;;;;;4841808;29;20033;-78
2021/01/17 08:37:44;;;;;;;32.38;6.43;;;4.70;99.90;;;;;;4862766;29;20055;-78
2021/01/17 08:40:14;;;;;;;34.25;6.25;;;4.80;99.90;;;;;;4861469;29;20041;-78
2021/01/17 08:42:52;;;;;;;42.00;6.15;;;4.90;99.90;;;;;;4859320;29;20053;-79
2021/01/17 08:45:20;;;;;;;37.20;4.72;;;5.00;99.90;;;;;;4843315;29;20021;-79
2021/01/17 08:47:50;;;;;;;35.92;7.25;;;5.10;99.90;;;;;;4856515;29;20049;-79
2021/01/17 08:50:32;;;;;;;30.95;5.32;;;5.10;99.90;;;;;;4861305;29;20062;-79
2021/01/17 08:53:08;;;;;;;37.10;5.00;;;5.20;99.90;;;;;;4859259;29;20044;-79
2021/01/17 08:55:48;;;;;;;40.75;5.68;;;5.20;99.90;;;;;;4861678;29;20025;-79
2021/01/17 08:58:16;;;;;;;24.70;4.13;;;5.20;99.90;;;;;;4861912;29;20108;-79
2021/01/17 09:00:57;;;;;;;32.72;3.75;;;5.30;99.90;;;;;;4860858;29;20029;-79
2021/01/17 09:03:36;;;;;;;20.38;3.85;;;5.30;99.90;;;;;;4859917;29;20041;-79
2021/01/17 09:06:20;;;;;;;20.98;4.28;;;5.40;99.90;;;;;;4853587;29;20085;-77
2021/01/17 09:08:49;;;;;;;25.60;4.97;;;5.40;99.90;;;;;;4842509;29;20032;-79
2021/01/17 09:11:37;;;;;;;28.50;4.47;;;5.40;99.90;;;;;;4860961;29;20044;-79
2021/01/17 09:14:17;;;;;;;;;;;5.50;99.90;;;;;;4859852;29;20037;-78
2021/01/17 09:16:55;;;;;;;26.00;3.65;;;5.50;99.90;;;;;;4855648;29;20398;-79
2021/01/17 09:19:28;;;;;;;20.85;4.70;;;5.60;99.90;;;;;;4844448;29;20029;-77
2021/01/17 09:21:55;;;;;;;28.20;4.53;;;5.60;99.90;;;;;;4844318;29;20062;-77
2021/01/17 09:24:27;;;;;;;24.30;3.63;;;5.60;99.90;;;;;;4859893;29;20489;-78
2021/01/17 09:26:55;;;;;;;19.30;5.00;;;5.60;99.90;;;;;;4860711;29;20032;-78
2021/01/17 09:29:21;;;;;;;;;;;5.50;99.90;;;;;;4860012;29;20400;-77
2021/01/17 09:31:57;;;;;;;13.13;3.35;;;5.60;99.90;;;;;;4857276;29;19916;-78
2021/01/17 09:34:46;;;;;;;23.20;3.97;;;5.60;99.90;;;;;;4848886;29;20025;-78
2021/01/17 09:37:17;;;;;;;36.90;4.20;;;5.60;99.90;;;;;;4859193;29;20033;-77
2021/01/17 09:39:44;;;;;;;42.25;3.88;;;5.60;99.90;;;;;;4858482;29;20431;-78
2021/01/17 09:42:15;;;;;;;20.77;4.22;;;5.70;99.90;;;;;;4859842;29;20061;-77
2021/01/17 09:44:52;;;;;;;21.70;3.25;;;5.80;99.90;;;;;;4855429;29;20042;-77
2021/01/17 09:47:19;;;;;;;20.65;3.65;;;5.90;99.90;;;;;;4859259;29;20034;-77
2021/01/17 09:49:47;;;;;;;20.38;4.63;;;6.00;99.90;;;;;;4859351;29;20026;-78
2021/01/17 09:52:21;;;;;;;27.20;3.63;;;6.10;99.90;;;;;;4856439;29;20072;-78
2021/01/17 09:54:48;;;;;;;41.33;3.90;;;6.10;99.90;;;;;;4867987;29;20022;-77
2021/01/17 09:57:22;;;;;;;17.92;3.47;;;6.10;99.90;;;;;;4851087;29;20026;-77
2021/01/17 09:59:49;;;;;;;22.75;3.75;;;6.20;99.90;;;;;;4867781;29;20029;-77
2021/01/17 10:02:23;;;;;;;27.98;3.40;;;6.20;99.90;;;;;;4868326;29;20033;-78
2021/01/17 10:04:49;;;;;;;20.98;3.90;;;6.30;99.90;;;;;;4847326;29;20160;-77
2021/01/17 10:07:17;;;;;;;22.77;3.92;;;6.30;99.90;;;;;;4863694;29;20037;-77
2021/01/17 10:09:43;;;;;;;22.30;3.45;;;6.30;99.90;;;;;;4851849;29;20033;-78
2021/01/17 10:12:11;;;;;;;13.25;2.53;;;6.40;99.90;;;;;;4864971;29;20037;-78
2021/01/17 10:14:37;;;;;;;37.45;4.70;;;6.30;99.90;;;;;;4859410;29;20037;-78
2021/01/17 10:17:05;;;;;;;25.73;4.20;;;6.40;99.90;;;;;;4862172;29;20410;-78
2021/01/17 10:19:38;;;;;;;26.25;3.47;;;6.50;99.90;;;;;;4849867;29;20025;-78
2021/01/17 10:22:04;;;;;;;20.98;3.95;;;6.50;99.90;;;;;;4862240;29;20054;-77
2021/01/17 10:24:32;;;;;;;28.88;3.95;;;6.50;99.90;;;;;;4862297;29;20386;-80
2021/01/17 10:27:06;;;;;;;15.90;3.33;;;6.70;99.90;;;;;;4855209;29;20053;-77
2021/01/17 10:29:37;;;;;;;27.70;3.88;;;6.90;99.90;;;;;;4848357;29;20111;-78
2021/01/17 10:32:14;;;;;;;24.23;4.10;;;7.20;99.90;;;;;;4858719;29;20037;-76
2021/01/17 10:34:46;;;;;;;28.73;3.22;;;7.30;99.90;;;;;;4846401;29;20028;-76
2021/01/17 10:37:17;;;;;;;28.08;4.55;;;7.30;99.90;;;;;;4862286;29;20060;-78
2021/01/17 10:39:43;;;;;;;21.83;3.80;;;7.30;99.90;;;;;;4848601;29;20034;-80
2021/01/17 10:42:40;;;;;;;24.83;3.80;;;7.20;99.90;;;;;;4855537;29;20538;-79
2021/01/17 10:45:13;;;;;;;31.67;3.23;;;7.20;99.90;;;;;;4857200;29;20451;-77
2021/01/17 10:48:16;;;;;;;20.17;3.33;;;7.10;99.90;;;;;;4868485;29;20040;-77
2021/01/17 10:50:56;;;;;;;30.05;4.13;;;7.00;99.90;;;;;;4866960;29;20031;-77
2021/01/17 10:53:28;;;;;;;17.33;3.92;;;7.10;99.90;;;;;;4871749;29;20152;-77
2021/01/17 10:55:56;;;;;;;28.48;5.07;;;7.00;99.90;;;;;;4873418;29;20381;-77
2021/01/17 10:58:27;;;;;;;32.47;3.85;;;7.10;99.90;;;;;;4867805;29;20021;-78
2021/01/17 11:00:54;;;;;;;27.17;4.25;;;7.20;99.90;;;;;;4868402;29;20030;-76
2021/01/17 11:03:28;;;;;;;34.72;4.13;;;7.20;99.90;;;;;;4870585;29;20053;-77
2021/01/17 11:06:26;;;;;;;26.27;4.68;;;7.20;99.90;;;;;;4857668;29;20053;-76
2021/01/17 11:08:56;;;;;;;20.33;4.45;;;7.20;99.90;;;;;;4869427;29;20058;-77
2021/01/17 11:11:24;;;;;;;27.13;5.45;;;7.20;99.90;;;;;;4858558;29;20039;-77
2021/01/17 11:14:03;;;;;;;20.60;3.63;;;7.20;99.90;;;;;;4874754;29;20038;-77
2021/01/17 11:16:37;;;;;;;24.25;3.83;;;7.20;99.90;;;;;;4872777;29;20060;-77
2021/01/17 11:19:13;;;;;;;24.05;3.90;;;7.00;99.90;;;;;;4881673;29;20026;-76
2021/01/17 11:21:40;;;;;;;19.17;3.22;;;6.90;99.90;;;;;;4867070;29;20386;-78
2021/01/17 11:24:07;;;;;;;31.42;4.28;;;7.00;99.90;;;;;;4862276;29;20090;-77
2021/01/17 11:26:36;;;;;;;26.60;3.08;;;6.90;99.90;;;;;;4861533;29;20038;-77
2021/01/17 11:29:04;;;;;;;19.83;3.15;;;7.00;99.90;;;;;;4859688;29;20036;-78
2021/01/17 11:31:29;;;;;;;29.30;3.03;;;7.00;99.90;;;;;;4852201;29;20141;-79
2021/01/17 11:33:55;;;;;;;17.70;2.92;;;7.10;99.90;;;;;;4865182;29;20026;-79
2021/01/17 11:36:26;;;;;;;19.60;3.13;;;7.10;99.90;;;;;;4863043;29;20030;-76
2021/01/17 11:38:57;;;;;;;21.83;2.35;;;7.20;99.90;;;;;;4858648;29;20360;-76
2021/01/17 11:41:37;;;;;;;16.17;2.83;;;7.30;99.90;;;;;;4874824;29;20124;-77
2021/01/17 11:44:17;;;;;;;18.63;3.92;;;7.40;99.90;;;;;;4863831;29;20037;-77
2021/01/17 11:46:43;;;;;;;11.55;2.15;;;7.20;99.90;;;;;;4870004;29;20026;-77
2021/01/17 11:49:10;;;;;;;13.63;2.47;;;7.30;99.90;;;;;;4869760;29;20037;-77
2021/01/17 11:51:36;;;;;;;18.25;3.00;;;7.20;99.90;;;;;;4850258;29;20137;-77
2021/01/17 11:54:13;;;;;;;16.55;2.47;;;7.30;99.90;;;;;;4850744;29;20165;-77
2021/01/17 11:56:40;;;;;;;13.85;2.28;;;7.30;99.90;;;;;;4866164;29;20026;-77
2021/01/17 11:59:06;;;;;;;12.05;1.75;;;7.40;99.90;;;;;;4859075;29;20037;-78
2021/01/17 12:01:32;;;;;;;15.93;3.53;;;7.40;99.90;;;;;;4861774;29;20022;-76
2021/01/17 12:04:08;;;;;;;25.15;2.78;;;7.40;99.90;;;;;;4845085;29;20029;-77
2021/01/17 12:06:34;;;;;;;17.92;2.20;;;7.50;99.90;;;;;;4860417;29;20026;-77
2021/01/17 12:09:09;;;;;;;19.60;2.20;;;7.50;99.90;;;;;;4845561;29;20044;-75
2021/01/17 12:11:47;;;;;;;20.58;2.40;;;7.60;99.90;;;;;;4844323;29;20026;-77
2021/01/17 12:14:20;;;;;;;31.30;3.58;;;7.70;99.90;;;;;;4853030;29;20487;-76
2021/01/17 12:16:48;;;;;;;20.35;2.22;;;7.80;99.90;;;;;;4849882;29;20489;-76
2021/01/17 12:19:15;;;;;;;19.05;3.13;;;7.90;99.90;;;;;;4863472;29;20037;-77
2021/01/17 12:21:42;;;;;;;13.27;3.03;;;8.00;99.90;;;;;;4864674;29;20048;-76
2021/01/17 12:24:13;;;;;;;17.20;2.42;;;8.00;99.90;;;;;;4863860;29;20054;-78
2021/01/17 12:26:40;;;;;;;22.20;2.67;;;8.00;99.90;;;;;;4858209;29;20045;-77
2021/01/17 12:29:06;;;;;;;17.80;2.63;;;7.90;99.90;;;;;;4849178;29;20025;-76
2021/01/17 12:31:33;;;;;;;23.83;3.15;;;7.90;99.90;;;;;;4866546;29;20037;-76
2021/01/17 12:33:59;;;;;;;23.15;2.80;;;7.80;99.90;;;;;;4863670;29;20090;-75
2021/01/17 12:36:27;;;;;;;18.00;3.67;;;7.70;99.90;;;;;;4866039;29;20428;-76
2021/01/17 12:38:53;;;;;;;31.65;3.10;;;7.60;99.90;;;;;;4866656;29;20051;-77
2021/01/17 12:41:21;;;;;;;21.70;5.13;;;7.50;99.90;;;;;;4864860;29;20034;-76
2021/01/17 12:43:47;;;;;;;20.70;4.45;;;7.60;99.90;;;;;;4866154;29;20539;-76
2021/01/17 12:46:14;;;;;;;21.35;2.75;;;7.50;99.90;;;;;;4850043;29;20054;-75
2021/01/17 12:48:40;;;;;;;24.70;3.03;;;7.50;99.90;;;;;;4864986;29;20395;-76
2021/01/17 12:51:06;;;;;;;26.13;3.40;;;7.40;99.90;;;;;;4847846;29;20109;-75
2021/01/17 12:53:32;;;;;;;20.90;3.90;;;7.50;99.90;;;;;;4865407;29;20391;-77
2021/01/17 12:55:58;;;;;;;20.25;2.67;;;7.50;99.90;;;;;;4850163;29;20048;-77